createdAt,value
2018-06-07T00:02:54.189Z,5.07
2018-06-07T00:07:57.571Z,5.60
2018-06-07T00:13:00.975Z,4.90
2018-06-07T00:18:04.401Z,4.80
2018-06-07T00:23:07.766Z,4.83
2018-06-07T00:28:11.178Z,4.57
2018-06-07T00:33:14.651Z,5.03
2018-06-07T00:38:18.104Z,6.33
2018-06-07T00:43:21.561Z,5.40
2018-06-07T00:48:25.010Z,5.60
2018-06-07T00:53:28.483Z,4.30
2018-06-07T00:58:31.897Z,5.40
2018-06-07T01:03:35.424Z,4.70
2018-06-07T01:08:39.058Z,4.23
2018-06-07T01:13:42.558Z,5.07
2018-06-07T01:18:46.028Z,5.07
2018-06-07T01:23:49.476Z,4.80
2018-06-07T01:28:53.014Z,4.17
2018-06-07T01:33:56.521Z,4.60
2018-06-07T01:39:08.205Z,6.73
2018-06-07T01:44:11.656Z,4.63
2018-06-07T01:49:15.115Z,4.53
2018-06-07T01:54:18.542Z,4.87
2018-06-07T01:59:21.982Z,4.87
2018-06-07T02:04:25.443Z,5.03
2018-06-07T02:14:54.640Z,6.10
2018-06-07T02:19:58.024Z,6.50
2018-06-07T02:25:01.473Z,6.00
2018-06-07T02:30:04.944Z,6.33
2018-06-07T02:35:08.429Z,7.87
2018-06-07T02:40:13.884Z,4.60
2018-06-07T02:45:17.310Z,10.07
2018-06-07T02:50:20.722Z,4.43
2018-06-07T02:55:24.193Z,4.90
2018-06-07T03:00:27.581Z,5.33
2018-06-07T03:05:31.007Z,5.13
2018-06-07T03:10:34.387Z,5.13
2018-06-07T03:15:37.844Z,5.17
2018-06-07T03:20:41.252Z,7.13
2018-06-07T03:25:44.638Z,5.27
2018-06-07T03:30:48.048Z,5.07
2018-06-07T03:35:51.433Z,7.17
2018-06-07T03:40:54.824Z,6.00
2018-06-07T03:45:58.253Z,4.33
2018-06-07T03:51:01.668Z,6.87
2018-06-07T03:56:05.097Z,6.23
2018-06-07T04:01:08.502Z,5.33
2018-06-07T04:06:11.954Z,5.97
2018-06-07T04:11:15.318Z,4.73
2018-06-07T04:16:18.717Z,6.87
2018-06-07T04:21:22.116Z,7.27
2018-06-07T04:26:25.509Z,4.87
2018-06-07T04:31:28.892Z,5.30
2018-06-07T04:36:32.329Z,4.63
2018-06-07T04:41:35.728Z,7.27
2018-06-07T04:46:39.138Z,5.77
2018-06-07T04:51:42.505Z,5.37
2018-06-07T04:56:45.596Z,5.23
2018-06-07T05:01:49.000Z,5.13
2018-06-07T05:06:52.443Z,5.50
2018-06-07T05:11:55.840Z,4.40
2018-06-07T05:16:59.367Z,6.63
2018-06-07T05:22:02.783Z,5.40
2018-06-07T05:27:06.204Z,6.07
2018-06-07T05:32:09.685Z,5.47
2018-06-07T05:37:13.060Z,6.63
2018-06-07T05:42:16.478Z,12.07
2018-06-07T05:47:19.936Z,5.40
2018-06-07T05:52:23.327Z,5.70
2018-06-07T05:57:27.194Z,6.10
2018-06-07T06:02:30.583Z,8.50
2018-06-07T06:07:34.024Z,5.63
2018-06-07T06:12:37.429Z,5.33
2018-06-07T06:17:40.817Z,10.40
2018-06-07T06:22:44.237Z,6.37
2018-06-07T06:27:47.657Z,5.67
2018-06-07T06:32:51.073Z,5.40
2018-06-07T06:38:57.393Z,6.10
2018-06-07T06:44:00.508Z,5.53
2018-06-07T06:49:03.967Z,5.73
2018-06-07T06:54:07.369Z,6.50
2018-06-07T06:59:10.846Z,6.40
2018-06-07T07:04:14.300Z,5.83
2018-06-07T07:09:17.749Z,6.57
2018-06-07T07:14:21.068Z,6.23
2018-06-07T07:19:24.481Z,8.77
2018-06-07T07:24:27.896Z,7.40
2018-06-07T07:29:31.277Z,7.47
2018-06-07T07:34:34.730Z,5.60
2018-06-07T07:39:38.045Z,5.90
2018-06-07T07:44:41.420Z,6.57
2018-06-07T07:49:44.816Z,6.87
2018-06-07T07:54:48.236Z,7.57
2018-06-07T07:59:51.610Z,7.07
2018-06-07T08:04:54.976Z,7.00
2018-06-07T08:09:58.399Z,6.77
2018-06-07T08:15:01.802Z,6.53
2018-06-07T08:20:05.232Z,6.33
2018-06-07T08:25:08.649Z,7.60
2018-06-07T08:30:12.032Z,6.87
2018-06-07T08:35:15.477Z,9.10
2018-06-07T08:40:18.880Z,6.80
2018-06-07T08:45:22.304Z,7.77
2018-06-07T08:50:25.787Z,5.63
2018-06-07T08:55:29.416Z,8.13
2018-06-07T09:00:33.052Z,6.37
2018-06-07T09:05:36.423Z,6.43
2018-06-07T09:10:39.955Z,7.80
2018-06-07T09:15:43.436Z,8.80
2018-06-07T09:20:46.943Z,7.37
2018-06-07T09:25:50.434Z,7.73
2018-06-07T09:30:53.866Z,6.40
2018-06-07T09:35:57.468Z,9.53
2018-06-07T09:41:01.064Z,7.77
2018-06-07T09:46:04.655Z,8.30
2018-06-07T09:51:07.949Z,9.43
2018-06-07T09:56:11.550Z,6.97
2018-06-07T10:01:15.161Z,8.55
2018-06-07T10:06:18.866Z,8.15
2018-06-07T10:11:22.426Z,7.95
2018-06-07T10:16:25.925Z,7.05
2018-06-07T10:21:29.609Z,6.75
2018-06-07T10:26:33.201Z,7.22
2018-06-07T10:31:36.814Z,8.03
2018-06-07T10:36:40.470Z,7.10
2018-06-07T10:41:44.165Z,7.37
2018-06-07T10:46:47.853Z,7.20
2018-06-07T10:51:51.504Z,7.58
2018-06-07T10:56:55.126Z,7.78
2018-06-07T11:01:58.805Z,8.43
2018-06-07T11:07:02.470Z,7.58
2018-06-07T11:12:06.071Z,9.23
2018-06-07T11:17:09.751Z,8.25
2018-06-07T11:22:13.538Z,8.68
2018-06-07T11:27:17.302Z,7.37
2018-06-07T11:32:21.449Z,8.23
2018-06-07T11:37:27.280Z,7.55
2018-06-07T11:42:32.322Z,7.97
2018-06-07T11:47:36.981Z,7.92
2018-06-07T11:52:42.428Z,8.93
2018-06-07T11:57:48.517Z,8.53
2018-06-07T12:02:57.294Z,6.90
2018-06-07T12:08:03.754Z,7.05
2018-06-07T12:13:07.877Z,6.67
2018-06-07T12:18:15.429Z,7.28
2018-06-07T12:23:23.164Z,6.90
2018-06-07T12:28:36.225Z,7.37
2018-06-07T12:33:46.626Z,7.45
2018-06-07T12:38:55.482Z,7.10
2018-06-07T12:44:03.339Z,7.45
2018-06-07T12:49:12.745Z,13.32
2018-06-07T12:54:23.476Z,7.45
2018-06-07T12:59:33.509Z,8.65
2018-06-07T13:04:41.361Z,8.55
2018-06-07T13:09:50.470Z,8.65
2018-06-07T13:15:05.167Z,9.53
2018-06-07T13:20:14.196Z,8.25
2018-06-07T13:25:20.761Z,7.55
2018-06-07T13:30:34.076Z,9.05
2018-06-07T13:35:42.756Z,6.80
2018-06-07T13:40:48.940Z,6.30
2018-06-07T13:45:56.895Z,5.97
2018-06-07T13:51:06.172Z,10.43
2018-06-07T13:56:11.309Z,5.93
2018-06-07T14:01:17.470Z,7.67
2018-06-07T14:06:21.222Z,5.13
2018-06-07T14:11:25.730Z,5.33
2018-06-07T14:16:29.083Z,3.13
2018-06-07T14:21:33.822Z,3.93
2018-06-07T14:26:37.578Z,4.50
2018-06-07T14:31:43.277Z,2.67
2018-06-07T14:36:48.977Z,2.47
2018-06-07T14:41:52.632Z,4.03
2018-06-07T14:46:59.533Z,1.80
2018-06-07T14:52:06.562Z,1.77
2018-06-07T14:57:12.217Z,2.10
2018-06-07T15:02:23.109Z,2.27
2018-06-07T15:07:26.902Z,2.20
2018-06-07T15:12:34.398Z,3.10
2018-06-07T15:17:40.479Z,2.40
2018-06-07T15:22:44.186Z,3.07
2018-06-07T15:27:48.660Z,2.27
2018-06-07T15:32:52.532Z,3.13
2018-06-07T15:37:56.190Z,3.90
2018-06-07T15:43:02.152Z,2.87
2018-06-07T15:48:07.265Z,2.73
2018-06-07T15:53:11.956Z,3.00
2018-06-07T15:58:17.509Z,2.67
2018-06-07T16:03:21.998Z,2.43
2018-06-07T16:08:25.777Z,2.90
2018-06-07T16:13:31.684Z,2.50
2018-06-07T16:18:35.270Z,2.87
2018-06-07T16:23:38.899Z,4.67
2018-06-07T16:28:42.160Z,3.70
2018-06-07T16:33:45.787Z,3.93
2018-06-07T16:38:49.401Z,4.73
2018-06-07T16:43:52.924Z,4.87
2018-06-07T16:48:56.549Z,9.23
2018-06-07T16:54:00.181Z,3.70
2018-06-07T16:59:03.700Z,3.60
2018-06-07T17:04:07.217Z,4.67
2018-06-07T17:09:10.906Z,4.07
2018-06-07T17:14:14.469Z,4.13
2018-06-07T17:19:18.056Z,4.37
2018-06-07T17:24:21.825Z,3.77
2018-06-07T17:29:25.404Z,4.43
2018-06-07T17:34:29.174Z,3.70
2018-06-07T17:39:32.935Z,4.40
2018-06-07T17:44:36.586Z,3.70
2018-06-07T17:49:41.488Z,6.07
2018-06-07T17:54:45.249Z,4.03
2018-06-07T17:59:49.938Z,5.63
2018-06-07T18:04:53.775Z,4.20
2018-06-07T18:09:57.472Z,3.77
2018-06-07T18:15:01.210Z,4.03
2018-06-07T18:20:06.010Z,5.43
2018-06-07T18:25:09.720Z,5.00
2018-06-07T18:30:13.407Z,4.13
2018-06-07T18:35:17.082Z,4.37
2018-06-07T18:40:22.522Z,4.07
2018-06-07T18:45:26.232Z,4.93
2018-06-07T18:50:29.961Z,4.17
2018-06-07T18:55:33.770Z,4.00
2018-06-07T19:00:37.486Z,3.97
2018-06-07T19:05:41.194Z,4.50
2018-06-07T19:10:44.993Z,3.40
2018-06-07T19:15:48.715Z,4.60
2018-06-07T19:20:53.854Z,3.50
2018-06-07T19:26:02.897Z,3.93
2018-06-07T19:31:06.655Z,3.43
2018-06-07T19:36:11.324Z,4.70
2018-06-07T19:41:20.229Z,4.30
2018-06-07T19:46:26.506Z,3.77
2018-06-07T19:51:30.256Z,4.73
2018-06-07T19:56:34.590Z,4.47
2018-06-07T20:01:41.548Z,6.10
2018-06-07T20:06:45.301Z,4.00
2018-06-07T20:11:52.590Z,4.10
2018-06-07T20:16:56.883Z,4.77
2018-06-07T20:22:02.694Z,4.37
2018-06-07T20:27:07.918Z,4.07
2018-06-07T20:32:13.250Z,4.20
2018-06-07T20:37:19.059Z,4.97
2018-06-07T20:42:23.506Z,4.33
2018-06-07T20:47:35.631Z,5.17
2018-06-07T20:52:39.358Z,4.87
2018-06-07T20:57:45.189Z,3.63
2018-06-07T21:02:49.884Z,5.23
2018-06-07T21:07:53.664Z,3.83
2018-06-07T21:12:57.425Z,4.03
2018-06-07T21:18:01.116Z,5.20
2018-06-07T21:23:04.852Z,4.27
2018-06-07T21:28:08.959Z,4.80
2018-06-07T21:33:12.761Z,4.43
2018-06-07T21:38:16.556Z,5.07
2018-06-07T21:43:20.481Z,6.03
2018-06-07T21:48:24.849Z,4.77
2018-06-07T21:53:29.655Z,4.77
2018-06-07T21:58:33.730Z,5.20
2018-06-07T22:03:37.506Z,7.13
2018-06-07T22:08:42.249Z,3.93
2018-06-07T22:13:46.724Z,4.10
2018-06-07T22:18:50.446Z,8.37
2018-06-07T22:23:55.485Z,6.10
2018-06-07T22:28:59.172Z,7.23
2018-06-07T22:34:02.954Z,7.10
2018-06-07T22:44:32.934Z,4.67
2018-06-07T22:49:36.619Z,9.77
2018-06-07T22:54:40.751Z,6.23
2018-06-07T22:59:44.463Z,5.90
2018-06-07T23:04:48.170Z,5.90
2018-06-07T23:09:51.898Z,3.63
2018-06-07T23:14:55.540Z,4.27
2018-06-07T23:20:00.083Z,3.80
2018-06-07T23:25:04.030Z,4.43
2018-06-07T23:30:07.721Z,6.43
2018-06-07T23:35:11.437Z,5.53
2018-06-07T23:40:15.104Z,6.90
2018-06-07T23:45:18.770Z,7.53
2018-06-07T23:50:22.520Z,7.13
2018-06-07T23:55:26.113Z,6.83
